Maple Park, Illinois
Current Conditions -  °F | °C
As of 11:15 PM on Friday 21 Nov 2014 (Local Time) from KDKB Reporting Station
Overcast Overcast  
Wind Chill: 21°   Ceiling: 1800
Heat Index: 31°   Visibility: 10mi
Dew Point: 15°   Wind: 14mph
Humidity: 52%   Direction: 170°S
Pressure: 30.16"   Gusts: NA
Location:  41.91°N, 88.6°W
Report Text: KDKB 220515Z AUTO 17012KT 10SM OVC018 00/M09 A3016 RMK AO2 T10051093
Loading
Personal Weather Stations






























Interactive Weather Map New forecast layout! Learn more

10-Day Weather Forecast

Advertisements
Track Severe Weather on mobile